createdAt,value
2018-02-14T00:00:31.698Z,14.65
2018-02-14T00:02:58.600Z,16.58
2018-02-14T00:05:25.734Z,16.83
2018-02-14T00:07:52.589Z,19.00
2018-02-14T00:10:19.836Z,19.48
2018-02-14T00:12:46.739Z,21.27
2018-02-14T00:15:13.932Z,16.67
2018-02-14T00:17:40.856Z,16.30
2018-02-14T00:20:07.708Z,21.73
2018-02-14T00:22:34.551Z,15.20
2018-02-14T00:25:01.407Z,19.00
2018-02-14T00:27:28.556Z,13.83
2018-02-14T00:29:55.404Z,17.25
2018-02-14T00:32:22.547Z,21.55
2018-02-14T00:34:49.700Z,15.77
2018-02-14T00:37:16.568Z,17.67
2018-02-14T00:39:43.729Z,16.77
2018-02-14T00:42:10.584Z,20.05
2018-02-14T00:44:37.439Z,16.30
2018-02-14T00:47:04.530Z,18.15
2018-02-14T00:49:31.363Z,19.58
2018-02-14T00:51:58.183Z,17.17
2018-02-14T00:54:25.367Z,16.73
2018-02-14T00:56:52.220Z,18.92
2018-02-14T00:59:19.035Z,15.70
2018-02-14T01:01:45.870Z,21.77
2018-02-14T01:04:12.698Z,17.95
2018-02-14T01:06:39.552Z,17.73
2018-02-14T01:09:06.410Z,20.23
2018-02-14T01:11:33.574Z,15.73
2018-02-14T01:14:00.423Z,14.60
2018-02-14T01:16:27.292Z,16.00
2018-02-14T01:18:54.140Z,14.63
2018-02-14T01:21:21.007Z,16.13
2018-02-14T01:23:48.096Z,16.57
2018-02-14T01:26:15.251Z,16.87
2018-02-14T01:28:42.403Z,15.95
2018-02-14T01:31:09.247Z,17.58
2018-02-14T01:33:36.066Z,19.48
2018-02-14T01:36:02.891Z,17.37
2018-02-14T01:38:29.777Z,15.60
2018-02-14T01:40:56.616Z,17.75
2018-02-14T01:43:23.442Z,19.70
2018-02-14T01:45:50.607Z,15.75
2018-02-14T01:48:17.492Z,17.12
2018-02-14T01:50:44.346Z,17.98
2018-02-14T01:53:11.196Z,16.00
2018-02-14T01:55:38.294Z,17.35
2018-02-14T01:58:05.148Z,16.52
2018-02-14T02:00:32.032Z,19.08
2018-02-14T02:02:58.923Z,18.08
2018-02-14T02:05:25.779Z,21.25
2018-02-14T02:07:52.666Z,19.45
2018-02-14T02:10:19.755Z,18.40
2018-02-14T02:12:46.606Z,18.15
2018-02-14T02:15:14.302Z,18.87
2018-02-14T02:17:41.410Z,20.85
2018-02-14T02:20:08.300Z,19.92
2018-02-14T02:22:35.198Z,19.17
2018-02-14T02:25:02.350Z,17.63
2018-02-14T02:27:29.163Z,20.83
2018-02-14T02:29:56.014Z,18.25
2018-02-14T02:32:23.188Z,19.10
2018-02-14T02:34:50.342Z,19.05
2018-02-14T02:37:17.194Z,19.15
2018-02-14T02:40:03.879Z,16.70
2018-02-14T02:42:30.755Z,19.05
2018-02-14T02:44:57.620Z,18.12
2018-02-14T02:47:24.432Z,18.92
2018-02-14T02:49:51.336Z,19.50
2018-02-14T02:52:18.151Z,17.58
2018-02-14T02:54:45.021Z,14.50
2018-02-14T02:57:12.200Z,18.90
2018-02-14T02:59:39.351Z,18.45
2018-02-14T03:02:06.187Z,17.60
2018-02-14T03:04:33.357Z,17.42
2018-02-14T03:07:00.170Z,16.77
2018-02-14T03:09:27.036Z,17.48
2018-02-14T03:11:54.188Z,19.62
2018-02-14T03:14:21.060Z,18.23
2018-02-14T03:16:47.947Z,18.20
2018-02-14T03:19:15.124Z,19.37
2018-02-14T03:21:42.270Z,18.92
2018-02-14T03:24:09.089Z,18.45
2018-02-14T03:26:36.264Z,20.02
2018-02-14T03:29:03.112Z,18.15
2018-02-14T03:31:29.960Z,17.60
2018-02-14T03:33:56.794Z,20.20
2018-02-14T03:36:23.639Z,20.20
2018-02-14T03:38:50.454Z,17.92
2018-02-14T03:41:17.323Z,17.52
2018-02-14T03:43:44.476Z,18.27
2018-02-14T03:46:11.310Z,17.98
2018-02-14T03:48:38.154Z,19.62
2018-02-14T03:51:05.312Z,19.73
2018-02-14T03:53:32.146Z,16.55
2018-02-14T03:55:58.985Z,19.37
2018-02-14T03:58:26.151Z,19.17
2018-02-14T04:00:52.995Z,17.95
2018-02-14T04:03:19.867Z,16.10
2018-02-14T04:05:46.690Z,15.52
2018-02-14T04:08:13.523Z,20.15
2018-02-14T04:10:40.406Z,18.17
2018-02-14T04:13:07.511Z,17.45
2018-02-14T04:15:34.380Z,19.17
2018-02-14T04:18:01.288Z,19.50
2018-02-14T04:20:28.147Z,17.77
2018-02-14T04:22:54.962Z,20.30
2018-02-14T04:25:21.835Z,17.70
2018-02-14T04:27:48.650Z,17.85
2018-02-14T04:30:15.722Z,17.33
2018-02-14T04:32:42.614Z,17.10
2018-02-14T04:35:09.464Z,16.62
2018-02-14T04:37:36.316Z,16.83
2018-02-14T04:40:03.287Z,17.20
2018-02-14T04:42:30.172Z,17.55
2018-02-14T04:44:57.017Z,17.35
2018-02-14T04:47:23.892Z,19.67
2018-02-14T04:49:50.986Z,19.40
2018-02-14T04:52:17.806Z,19.10
2018-02-14T04:54:44.971Z,20.50
2018-02-14T04:57:11.799Z,17.77
2018-02-14T04:59:38.668Z,17.95
2018-02-14T05:02:05.548Z,18.23
2018-02-14T05:04:32.656Z,19.00
2018-02-14T05:06:59.504Z,23.20
2018-02-14T05:09:26.642Z,19.37
2018-02-14T05:11:53.794Z,17.48
2018-02-14T05:14:20.956Z,20.30
2018-02-14T05:16:47.880Z,15.45
2018-02-14T05:19:14.695Z,17.90
2018-02-14T05:21:41.511Z,18.90
2018-02-14T05:24:08.358Z,20.45
2018-02-14T05:26:35.211Z,18.40
2018-02-14T05:29:02.419Z,16.33
2018-02-14T05:31:29.581Z,18.87
2018-02-14T05:33:56.398Z,18.50
2018-02-14T05:36:23.243Z,19.30
2018-02-14T05:38:50.094Z,16.40
2018-02-14T05:41:16.955Z,16.17
2018-02-14T05:43:43.766Z,18.93
2018-02-14T05:46:10.636Z,17.70
2018-02-14T05:48:37.466Z,15.73
2018-02-14T05:51:04.275Z,18.20
2018-02-14T05:53:31.362Z,17.10
2018-02-14T05:55:58.239Z,16.73
2018-02-14T05:58:25.055Z,20.02
2018-02-14T06:00:51.922Z,18.73
2018-02-14T06:03:18.796Z,18.48
2018-02-14T06:05:45.672Z,18.00
2018-02-14T06:08:12.836Z,18.75
2018-02-14T06:10:39.696Z,20.67
2018-02-14T06:13:06.549Z,18.42
2018-02-14T06:15:33.392Z,21.55
2018-02-14T06:18:00.507Z,20.42
2018-02-14T06:20:27.400Z,20.10
2018-02-14T06:22:54.275Z,18.75
2018-02-14T06:25:21.102Z,17.02
2018-02-14T06:27:47.978Z,19.77
2018-02-14T06:30:14.804Z,20.45
2018-02-14T06:32:41.637Z,19.73
2018-02-14T06:35:08.499Z,20.45
2018-02-14T06:37:35.404Z,23.20
2018-02-14T06:40:02.288Z,19.23
2018-02-14T06:42:29.450Z,21.23
2018-02-14T06:44:56.284Z,21.95
2018-02-14T06:47:23.343Z,22.25
2018-02-14T06:49:50.196Z,19.48
2018-02-14T06:52:17.384Z,18.37
2018-02-14T06:54:44.483Z,24.20
2018-02-14T06:57:11.640Z,23.55
2018-02-14T06:59:38.792Z,19.17
2018-02-14T07:02:05.613Z,21.52
2018-02-14T07:04:32.684Z,17.20
2018-02-14T07:06:59.564Z,19.48
2018-02-14T07:09:26.383Z,18.65
2018-02-14T07:11:53.247Z,19.80
2018-02-14T07:14:20.086Z,16.80
2018-02-14T07:16:46.936Z,19.35
2018-02-14T07:19:13.811Z,18.80
2018-02-14T07:21:40.646Z,18.92
2018-02-14T07:24:07.470Z,19.45
2018-02-14T07:26:34.282Z,18.67
2018-02-14T07:29:01.423Z,19.95
2018-02-14T07:31:28.272Z,19.23
2018-02-14T07:33:55.120Z,19.07
2018-02-14T07:36:22.255Z,16.53
2018-02-14T07:38:49.071Z,15.45
2018-02-14T07:41:15.928Z,18.23
2018-02-14T07:43:42.758Z,19.58
2018-02-14T07:46:09.941Z,18.90
2018-02-14T07:48:36.770Z,16.60
2018-02-14T07:51:03.651Z,19.58
2018-02-14T07:53:30.504Z,21.33
2018-02-14T07:55:57.622Z,17.42
2018-02-14T07:58:24.522Z,17.05
2018-02-14T08:00:51.712Z,19.20
2018-02-14T08:03:18.556Z,18.00
2018-02-14T08:05:45.393Z,19.00
2018-02-14T08:08:12.276Z,16.62
2018-02-14T08:10:39.392Z,19.92
2018-02-14T08:13:06.243Z,19.52
2018-02-14T08:15:33.387Z,18.70
2018-02-14T08:18:00.636Z,18.55
2018-02-14T08:20:27.501Z,17.97
2018-02-14T08:22:54.327Z,17.40
2018-02-14T08:25:21.186Z,20.20
2018-02-14T08:27:48.314Z,14.73
2018-02-14T08:30:15.182Z,16.48
2018-02-14T08:32:42.002Z,18.58
2018-02-14T08:35:09.161Z,19.48
2018-02-14T08:37:36.019Z,21.02
2018-02-14T08:40:02.878Z,16.08
2018-02-14T08:42:29.987Z,14.93
2018-02-14T08:44:56.847Z,17.52
2018-02-14T08:47:23.727Z,15.52
2018-02-14T08:49:50.643Z,15.48
2018-02-14T08:52:17.783Z,17.55
2018-02-14T08:54:44.639Z,16.92
2018-02-14T08:57:11.768Z,16.20
2018-02-14T08:59:38.587Z,16.55
2018-02-14T09:02:05.659Z,15.70
2018-02-14T09:04:32.544Z,14.50
2018-02-14T09:06:59.359Z,15.18
2018-02-14T09:09:26.227Z,16.33
2018-02-14T09:11:53.434Z,13.27
2018-02-14T09:14:20.286Z,15.43
2018-02-14T09:16:47.143Z,14.77
2018-02-14T09:19:14.380Z,16.67
2018-02-14T09:21:41.531Z,15.15
2018-02-14T09:24:08.380Z,14.55
2018-02-14T09:26:35.255Z,15.00
2018-02-14T09:29:02.070Z,15.70
2018-02-14T09:31:28.920Z,16.15
2018-02-14T09:33:56.047Z,13.38
2018-02-14T09:36:22.892Z,12.90
2018-02-14T09:38:50.047Z,13.75
2018-02-14T09:41:16.909Z,15.83
2018-02-14T09:43:43.776Z,16.50
2018-02-14T09:46:10.586Z,12.65
2018-02-14T09:48:37.457Z,16.52
2018-02-14T09:51:04.320Z,17.55
2018-02-14T09:53:31.417Z,14.77
2018-02-14T09:55:58.250Z,18.02
2018-02-14T09:58:25.078Z,18.90
2018-02-14T10:00:52.246Z,15.02
2018-02-14T10:03:19.156Z,14.98
2018-02-14T10:05:46.010Z,15.48
2018-02-14T10:08:13.188Z,15.60
2018-02-14T10:10:40.048Z,15.97
2018-02-14T10:13:07.186Z,17.33
2018-02-14T10:15:34.036Z,17.40
2018-02-14T10:18:01.198Z,15.75
2018-02-14T10:20:28.329Z,16.23
2018-02-14T10:22:55.176Z,15.00
2018-02-14T10:25:22.324Z,17.90
2018-02-14T10:27:49.472Z,16.52
2018-02-14T10:30:16.325Z,15.52
2018-02-14T10:32:43.166Z,15.98
2018-02-14T10:35:09.989Z,19.15
2018-02-14T10:37:36.851Z,17.37
2018-02-14T10:40:03.992Z,19.60
2018-02-14T10:42:30.829Z,13.88
2018-02-14T10:44:57.991Z,15.55
2018-02-14T10:47:25.130Z,17.83
2018-02-14T10:49:52.290Z,19.23
2018-02-14T10:52:19.119Z,21.05
2018-02-14T10:54:45.978Z,17.45
2018-02-14T10:57:12.840Z,18.23
2018-02-14T10:59:39.975Z,17.08
2018-02-14T11:02:07.063Z,17.27
2018-02-14T11:04:33.891Z,18.33
2018-02-14T11:07:01.113Z,18.40
2018-02-14T11:09:27.998Z,17.15
2018-02-14T11:11:55.098Z,14.30
2018-02-14T11:14:22.159Z,19.08
2018-02-14T11:16:49.018Z,17.15
2018-02-14T11:19:16.160Z,16.75
2018-02-14T11:21:42.980Z,17.87
2018-02-14T11:24:09.856Z,15.88
2018-02-14T11:26:36.984Z,15.73
2018-02-14T11:29:03.807Z,16.35
2018-02-14T11:31:30.651Z,17.75
2018-02-14T11:33:57.760Z,16.33
2018-02-14T11:36:24.869Z,15.00
2018-02-14T11:38:51.732Z,16.83
2018-02-14T11:41:18.563Z,17.27
2018-02-14T11:43:45.699Z,21.62
2018-02-14T11:46:12.856Z,16.17
2018-02-14T11:48:40.007Z,16.35
2018-02-14T11:51:07.158Z,15.73
2018-02-14T11:53:33.999Z,15.65
2018-02-14T11:56:00.843Z,17.27
2018-02-14T11:58:27.715Z,18.85
2018-02-14T12:00:54.562Z,16.42
2018-02-14T12:03:21.428Z,14.33
2018-02-14T12:05:48.515Z,15.75
2018-02-14T12:08:15.666Z,16.77
2018-02-14T12:10:42.495Z,14.95
2018-02-14T12:13:09.312Z,14.90
2018-02-14T12:15:36.174Z,13.48
2018-02-14T12:18:03.017Z,14.05
2018-02-14T12:20:30.199Z,17.53
2018-02-14T12:22:57.076Z,14.90
2018-02-14T12:25:24.190Z,17.77
2018-02-14T12:27:51.075Z,14.02
2018-02-14T12:30:17.907Z,13.85
2018-02-14T12:32:44.726Z,10.02
2018-02-14T12:35:11.559Z,13.70
2018-02-14T12:37:38.391Z,13.85
2018-02-14T12:40:05.212Z,14.13
2018-02-14T12:42:32.022Z,13.77
2018-02-14T12:44:59.139Z,13.77
2018-02-14T12:47:26.299Z,13.10
2018-02-14T12:49:53.112Z,14.05
2018-02-14T12:52:20.294Z,14.13
2018-02-14T12:54:47.431Z,14.13
2018-02-14T12:57:14.296Z,16.30
2018-02-14T12:59:41.422Z,13.02
2018-02-14T13:02:08.267Z,13.83
2018-02-14T13:04:35.116Z,14.77
2018-02-14T13:07:01.996Z,13.77
2018-02-14T13:09:28.848Z,13.23
2018-02-14T13:11:55.714Z,15.45
2018-02-14T13:14:22.824Z,14.70
2018-02-14T13:16:49.947Z,13.68
2018-02-14T13:19:16.788Z,14.77
2018-02-14T13:21:43.635Z,13.75
2018-02-14T13:24:10.462Z,14.82
2018-02-14T13:26:37.321Z,19.25
2018-02-14T13:29:04.154Z,18.80
2018-02-14T13:31:30.983Z,16.55
2018-02-14T13:33:57.844Z,15.27
2018-02-14T13:36:24.769Z,17.65
2018-02-14T13:38:51.834Z,16.15
2018-02-14T13:41:18.650Z,13.25
2018-02-14T13:43:45.507Z,14.80
2018-02-14T13:46:12.339Z,17.08
2018-02-14T13:48:39.520Z,16.23
2018-02-14T13:51:06.667Z,16.05
2018-02-14T13:53:33.498Z,15.35
2018-02-14T13:56:00.326Z,15.52
2018-02-14T13:58:27.183Z,18.43
2018-02-14T14:00:53.997Z,17.30
2018-02-14T14:03:21.087Z,13.75
2018-02-14T14:05:47.972Z,16.25
2018-02-14T14:08:14.828Z,14.60
2018-02-14T14:10:41.675Z,14.50
2018-02-14T14:13:08.769Z,19.40
2018-02-14T14:15:35.586Z,25.43
2018-02-14T14:18:02.414Z,24.73
2018-02-14T14:20:29.500Z,20.37
2018-02-14T14:22:56.365Z,21.52
2018-02-14T14:25:23.495Z,18.27
2018-02-14T14:27:50.373Z,17.60
2018-02-14T14:30:17.194Z,19.42
2018-02-14T14:32:44.330Z,16.48
2018-02-14T14:35:11.212Z,19.12
2018-02-14T14:37:38.049Z,20.85
2018-02-14T14:40:04.888Z,18.52
2018-02-14T14:42:31.747Z,16.37
2018-02-14T14:44:58.648Z,18.07
2018-02-14T14:47:25.482Z,13.80
2018-02-14T14:49:52.356Z,16.40
2018-02-14T14:52:19.216Z,13.48
2018-02-14T14:54:46.344Z,19.75
2018-02-14T14:57:13.478Z,15.80
2018-02-14T14:59:40.329Z,17.42
2018-02-14T15:02:07.149Z,13.35
2018-02-14T15:04:33.999Z,15.27
2018-02-14T15:07:01.119Z,15.90
2018-02-14T15:09:28.316Z,16.98
2018-02-14T15:11:55.195Z,18.77
2018-02-14T15:14:22.063Z,14.23
2018-02-14T15:16:49.256Z,15.35
2018-02-14T15:19:16.096Z,12.53
2018-02-14T15:21:42.949Z,15.37
2018-02-14T15:24:09.799Z,15.45
2018-02-14T15:26:36.927Z,15.45
2018-02-14T15:29:03.779Z,14.33
2018-02-14T15:31:30.590Z,17.60
2018-02-14T15:33:57.428Z,15.95
2018-02-14T15:36:24.288Z,21.92
2018-02-14T15:38:51.494Z,13.68
2018-02-14T15:41:18.892Z,13.98
2018-02-14T15:43:45.959Z,14.20
2018-02-14T15:46:12.869Z,16.55
2018-02-14T15:48:39.953Z,16.67
2018-02-14T15:51:06.817Z,14.87
2018-02-14T15:53:33.664Z,15.68
2018-02-14T15:56:00.531Z,16.00
2018-02-14T15:58:27.388Z,15.80
2018-02-14T16:00:54.588Z,17.85
2018-02-14T16:03:21.423Z,14.68
2018-02-14T16:05:48.243Z,14.48
2018-02-14T16:08:15.088Z,16.23
2018-02-14T16:10:42.265Z,15.27
2018-02-14T16:13:09.413Z,16.37
2018-02-14T16:15:36.227Z,20.55
2018-02-14T16:18:03.152Z,22.87
2018-02-14T16:20:30.242Z,12.33
2018-02-14T16:22:57.096Z,17.90
2018-02-14T16:25:24.234Z,13.35
2018-02-14T16:27:51.084Z,13.18
2018-02-14T16:30:17.932Z,12.70
2018-02-14T16:32:44.796Z,13.70
2018-02-14T16:35:11.916Z,16.15
2018-02-14T16:37:39.067Z,16.02
2018-02-14T16:40:05.909Z,16.05
2018-02-14T16:42:32.756Z,12.45
2018-02-14T16:44:59.611Z,13.73
2018-02-14T16:47:26.682Z,14.68
2018-02-14T16:49:53.543Z,15.68
2018-02-14T16:52:20.365Z,15.55
2018-02-14T16:54:47.439Z,16.50
2018-02-14T16:57:14.530Z,14.57
2018-02-14T16:59:41.376Z,14.75
2018-02-14T17:02:08.529Z,13.82
2018-02-14T17:04:35.372Z,14.85
2018-02-14T17:07:02.186Z,13.55
2018-02-14T17:09:29.365Z,16.98
2018-02-14T17:11:56.210Z,16.55
2018-02-14T17:14:23.067Z,13.90
2018-02-14T17:16:50.199Z,16.98
2018-02-14T17:19:17.064Z,15.93
2018-02-14T17:21:43.890Z,18.83
2018-02-14T17:24:10.751Z,14.75
2018-02-14T17:26:37.874Z,13.82
2018-02-14T17:29:04.717Z,16.70
2018-02-14T17:31:31.600Z,16.17
2018-02-14T17:33:58.419Z,13.63
2018-02-14T17:36:25.230Z,15.75
2018-02-14T17:38:52.116Z,15.05
2018-02-14T17:41:18.978Z,16.05
2018-02-14T17:43:46.100Z,15.65
2018-02-14T17:46:12.931Z,16.33
2018-02-14T17:48:39.789Z,15.10
2018-02-14T17:51:06.598Z,15.40
2018-02-14T17:53:33.471Z,15.70
2018-02-14T17:56:00.290Z,15.93
2018-02-14T17:58:27.460Z,16.20
2018-02-14T18:00:54.334Z,15.00
2018-02-14T18:03:21.183Z,15.02
2018-02-14T18:05:48.295Z,14.20
2018-02-14T18:08:15.167Z,16.35
2018-02-14T18:10:42.000Z,15.50
2018-02-14T18:13:08.852Z,13.93
2018-02-14T18:15:35.707Z,16.12
2018-02-14T18:18:02.568Z,16.33
2018-02-14T18:20:29.411Z,20.60
2018-02-14T18:22:56.307Z,16.50
2018-02-14T18:25:23.443Z,18.45
2018-02-14T18:27:50.299Z,17.02
2018-02-14T18:30:17.164Z,15.50
2018-02-14T18:32:44.279Z,17.48
2018-02-14T18:35:11.132Z,14.45
2018-02-14T18:37:38.279Z,19.37
2018-02-14T18:40:05.179Z,17.23
2018-02-14T18:42:32.028Z,19.05
2018-02-14T18:44:58.871Z,14.57
2018-02-14T18:47:25.728Z,15.05
2018-02-14T18:49:52.904Z,15.68
2018-02-14T18:52:19.750Z,16.20
2018-02-14T18:54:46.896Z,15.80
2018-02-14T18:57:14.042Z,15.05
2018-02-14T18:59:40.924Z,18.77
2018-02-14T19:02:07.777Z,17.77
2018-02-14T19:04:34.635Z,16.92
2018-02-14T19:07:01.510Z,16.05
2018-02-14T19:09:28.368Z,17.62
2018-02-14T19:11:55.193Z,17.20
2018-02-14T19:14:22.023Z,16.95
2018-02-14T19:16:48.835Z,17.17
2018-02-14T19:19:15.687Z,18.10
2018-02-14T19:21:42.522Z,16.30
2018-02-14T19:24:09.381Z,16.20
2018-02-14T19:26:36.222Z,18.07
2018-02-14T19:29:03.348Z,19.53
2018-02-14T19:31:30.463Z,16.77
2018-02-14T19:33:57.364Z,14.85
2018-02-14T19:36:24.242Z,15.40
2018-02-14T19:38:51.103Z,16.45
2018-02-14T19:41:18.252Z,16.60
2018-02-14T19:43:45.120Z,17.85
2018-02-14T19:46:11.939Z,19.35
2018-02-14T19:48:38.755Z,18.15
2018-02-14T19:51:05.627Z,19.23
2018-02-14T19:53:32.784Z,17.37
2018-02-14T19:55:59.608Z,18.07
2018-02-14T19:58:26.453Z,19.00
2018-02-14T20:00:53.606Z,22.10
2018-02-14T20:03:20.426Z,21.45
2018-02-14T20:05:47.264Z,19.85
2018-02-14T20:08:14.120Z,19.67
2018-02-14T20:10:41.179Z,20.47
2018-02-14T20:13:08.330Z,19.33
2018-02-14T20:15:35.198Z,23.35
2018-02-14T20:18:02.019Z,23.08
2018-02-14T20:20:28.870Z,22.20
2018-02-14T20:22:55.710Z,19.48
2018-02-14T20:25:22.542Z,21.40
2018-02-14T20:27:49.415Z,19.92
2018-02-14T20:30:16.285Z,21.52
2018-02-14T20:32:43.388Z,21.62
2018-02-14T20:35:10.555Z,20.85
2018-02-14T20:37:37.375Z,22.10
2018-02-14T20:40:04.199Z,23.98
2018-02-14T20:42:31.179Z,20.58
2018-02-14T20:44:58.324Z,23.10
2018-02-14T20:47:25.172Z,21.00
2018-02-14T20:49:52.318Z,21.83
2018-02-14T20:52:19.168Z,22.45
2018-02-14T20:54:45.999Z,22.80
2018-02-14T20:57:12.838Z,20.50
2018-02-14T20:59:39.991Z,19.87
2018-02-14T21:02:06.824Z,20.90
2018-02-14T21:04:33.988Z,26.30
2018-02-14T21:07:00.830Z,22.77
2018-02-14T21:09:27.696Z,21.25
2018-02-14T21:11:54.831Z,21.62
2018-02-14T21:14:21.666Z,19.95
2018-02-14T21:16:48.815Z,20.27
2018-02-14T21:19:15.968Z,20.23
2018-02-14T21:21:43.121Z,21.30
2018-02-14T21:24:10.270Z,20.52
2018-02-14T21:26:37.424Z,21.70
2018-02-14T21:29:04.270Z,22.92
2018-02-14T21:31:31.135Z,20.95
2018-02-14T21:33:58.255Z,24.05
2018-02-14T21:36:25.412Z,24.15
2018-02-14T21:38:52.263Z,21.70
2018-02-14T21:41:19.106Z,20.80
2018-02-14T21:43:46.241Z,22.00
2018-02-14T21:46:13.396Z,21.92
2018-02-14T21:48:40.548Z,21.83
2018-02-14T21:51:07.396Z,19.77
2018-02-14T21:53:34.535Z,22.58
2018-02-14T21:56:01.375Z,18.95
2018-02-14T21:58:28.199Z,21.77
2018-02-14T22:00:55.027Z,19.63
2018-02-14T22:03:21.923Z,21.47
2018-02-14T22:05:48.714Z,23.70
2018-02-14T22:08:15.564Z,22.47
2018-02-14T22:10:42.419Z,23.80
2018-02-14T22:13:09.272Z,22.90
2018-02-14T22:15:36.121Z,21.73
2018-02-14T22:18:03.280Z,24.47
2018-02-14T22:20:30.430Z,21.15
2018-02-14T22:22:57.575Z,20.00
2018-02-14T22:25:24.411Z,22.60
2018-02-14T22:27:51.263Z,24.37
2018-02-14T22:30:18.419Z,22.25
2018-02-14T22:32:45.254Z,21.42
2018-02-14T22:35:12.075Z,24.67
2018-02-14T22:37:38.932Z,22.95
2018-02-14T22:40:05.820Z,24.20
2018-02-14T22:42:32.679Z,25.92
2018-02-14T22:44:59.741Z,23.92
2018-02-14T22:47:26.620Z,25.75
2018-02-14T22:49:53.468Z,28.65
2018-02-14T22:52:20.614Z,25.58
2018-02-14T22:54:47.779Z,24.12
2018-02-14T22:57:14.663Z,24.63
2018-02-14T22:59:41.864Z,31.57
2018-02-14T23:02:09.012Z,28.15
2018-02-14T23:04:36.164Z,24.80
2018-02-14T23:07:03.015Z,28.25
2018-02-14T23:09:29.869Z,29.65
2018-02-14T23:11:56.688Z,32.17
2018-02-14T23:14:23.544Z,30.27
2018-02-14T23:16:50.452Z,25.75
2018-02-14T23:19:17.528Z,31.87
2018-02-14T23:21:44.386Z,34.13
2018-02-14T23:24:11.518Z,33.10
2018-02-14T23:26:38.680Z,31.77
2018-02-14T23:29:05.528Z,31.75
2018-02-14T23:31:32.668Z,30.83
2018-02-14T23:33:59.768Z,35.03
2018-02-14T23:36:26.968Z,35.33
2018-02-14T23:38:53.844Z,36.33
2018-02-14T23:41:20.723Z,37.22
2018-02-14T23:43:47.555Z,37.47
2018-02-14T23:46:14.407Z,37.88
2018-02-14T23:48:41.508Z,38.67
2018-02-14T23:51:08.648Z,39.08
2018-02-14T23:53:35.519Z,40.27
2018-02-14T23:56:02.392Z,36.60
2018-02-14T23:58:29.580Z,35.50
